createdAt,value
2023-09-11T00:04:47.474Z,2.65
2023-09-11T00:09:49.534Z,2.10
2023-09-11T00:14:51.512Z,2.88
2023-09-11T00:19:55.144Z,3.22
2023-09-11T00:24:57.073Z,1.98
2023-09-11T00:29:59.160Z,2.35
2023-09-11T00:35:01.247Z,2.70
2023-09-11T00:40:03.326Z,1.98
2023-09-11T00:45:05.596Z,2.50
2023-09-11T00:50:11.069Z,2.22
2023-09-11T00:55:13.893Z,3.00
2023-09-11T01:00:16.267Z,2.88
2023-09-11T01:05:18.308Z,3.17
2023-09-11T01:10:20.466Z,2.58
2023-09-11T01:15:25.405Z,2.83
2023-09-11T01:20:58.916Z,2.65
2023-09-11T01:26:23.040Z,2.30
2023-09-11T01:31:27.663Z,2.75
2023-09-11T01:36:29.593Z,3.08
2023-09-11T01:41:39.264Z,2.42
2023-09-11T01:46:42.534Z,3.15
2023-09-11T01:51:45.960Z,2.83
2023-09-11T01:56:48.530Z,2.72
2023-09-11T02:01:50.506Z,2.67
2023-09-11T02:06:52.438Z,3.33
2023-09-11T02:11:54.376Z,2.95
2023-09-11T02:17:03.944Z,2.72
2023-09-11T02:22:06.619Z,2.80
2023-09-11T02:27:08.587Z,2.75
2023-09-11T02:32:10.510Z,3.13
2023-09-11T02:37:12.415Z,3.42
2023-09-11T02:42:14.382Z,3.00
2023-09-11T02:47:16.261Z,3.35
2023-09-11T02:52:18.060Z,4.22
2023-09-11T02:57:19.988Z,3.75
2023-09-11T03:02:22.672Z,3.53
2023-09-11T03:07:25.167Z,3.92
2023-09-11T03:12:30.631Z,4.30
2023-09-11T03:17:33.549Z,4.88
2023-09-11T03:22:35.815Z,4.22
2023-09-11T03:27:37.832Z,4.47
2023-09-11T03:32:40.694Z,4.43
2023-09-11T03:37:43.632Z,4.60
2023-09-11T03:42:45.838Z,4.57
2023-09-11T03:47:47.767Z,4.63
2023-09-11T03:52:49.985Z,3.97
2023-09-11T03:57:52.690Z,4.00
2023-09-11T04:02:54.816Z,4.55
2023-09-11T04:07:56.971Z,4.65
2023-09-11T04:12:58.866Z,4.68
2023-09-11T04:18:01.058Z,5.05
2023-09-11T04:23:04.305Z,5.32
2023-09-11T04:28:06.901Z,4.60
2023-09-11T04:33:09.025Z,5.60
2023-09-11T04:38:11.255Z,5.15
2023-09-11T04:43:13.334Z,4.28
2023-09-11T04:48:16.243Z,4.05
2023-09-11T04:53:18.484Z,4.65
2023-09-11T04:58:21.031Z,3.92
2023-09-11T05:03:23.294Z,5.20
2023-09-11T05:08:25.902Z,4.50
2023-09-11T05:13:28.223Z,4.97
2023-09-11T05:18:30.819Z,4.95
2023-09-11T05:23:33.363Z,4.90
2023-09-11T05:28:35.389Z,5.03
2023-09-11T05:33:37.700Z,5.07
2023-09-11T05:38:40.188Z,4.70
2023-09-11T05:43:42.865Z,5.32
2023-09-11T05:48:45.609Z,4.90
2023-09-11T05:53:47.929Z,5.30
2023-09-11T05:58:49.904Z,4.53
2023-09-11T06:03:52.118Z,4.70
2023-09-11T06:08:54.995Z,4.93
2023-09-11T06:13:56.937Z,4.65
2023-09-11T06:18:59.595Z,4.90
2023-09-11T06:24:01.729Z,4.68
2023-09-11T06:29:03.865Z,4.80
2023-09-11T06:34:06.079Z,3.85
2023-09-11T06:39:08.043Z,4.15
2023-09-11T06:44:10.288Z,4.80
2023-09-11T06:49:12.233Z,4.57
2023-09-11T06:54:14.252Z,4.20
2023-09-11T06:59:16.278Z,4.70
2023-09-11T07:04:18.582Z,4.65
2023-09-11T07:09:25.106Z,4.80
2023-09-11T07:14:27.262Z,5.22
2023-09-11T07:19:29.345Z,5.53
2023-09-11T07:24:31.390Z,5.72
2023-09-11T07:29:33.614Z,5.38
2023-09-11T07:34:35.801Z,5.63
2023-09-11T07:39:37.906Z,5.53
2023-09-11T07:44:39.744Z,5.55
2023-09-11T07:49:41.863Z,5.05
2023-09-11T07:54:44.292Z,4.53
2023-09-11T07:59:46.482Z,4.88
2023-09-11T08:04:48.954Z,4.72
2023-09-11T08:09:54.293Z,4.57
2023-09-11T08:14:57.590Z,5.05
2023-09-11T08:19:59.575Z,4.38
2023-09-11T08:25:01.439Z,3.95
2023-09-11T08:30:05.956Z,5.00
2023-09-11T08:35:08.507Z,4.13
2023-09-11T08:40:11.197Z,4.22
2023-09-11T08:45:13.771Z,4.03
2023-09-11T08:50:20.403Z,4.63
2023-09-11T08:55:24.032Z,4.47
2023-09-11T09:00:29.312Z,4.45
2023-09-11T09:05:35.021Z,4.60
2023-09-11T09:10:37.201Z,3.78
2023-09-11T09:15:42.558Z,4.43
2023-09-11T09:20:45.048Z,4.25
2023-09-11T09:25:47.286Z,4.72
2023-09-11T09:30:58.167Z,4.68
2023-09-11T09:36:00.460Z,3.88
2023-09-11T09:41:11.909Z,4.13
2023-09-11T09:46:21.681Z,4.20
2023-09-11T09:51:24.037Z,5.10
2023-09-11T09:56:28.917Z,4.03
2023-09-11T10:01:30.926Z,4.15
2023-09-11T10:06:33.555Z,4.47
2023-09-11T10:11:37.402Z,4.13
2023-09-11T10:16:39.544Z,4.05
2023-09-11T10:21:41.538Z,4.50
2023-09-11T10:26:53.859Z,4.18
2023-09-11T10:32:17.285Z,4.82
2023-09-11T10:37:22.880Z,3.78
2023-09-11T10:42:24.766Z,3.85
2023-09-11T10:47:28.765Z,3.72
2023-09-11T10:52:30.737Z,3.70
2023-09-11T10:57:32.742Z,3.65
2023-09-11T11:02:35.335Z,3.63
2023-09-11T11:07:37.825Z,4.20
2023-09-11T11:12:42.229Z,4.28
2023-09-11T11:17:44.188Z,3.63
2023-09-11T11:22:46.295Z,3.85
2023-09-11T11:27:48.397Z,3.65
2023-09-11T11:32:51.725Z,3.63
2023-09-11T11:37:55.463Z,3.45
2023-09-11T11:42:59.972Z,4.05
2023-09-11T11:48:03.278Z,3.15
2023-09-11T11:53:07.277Z,3.78
2023-09-11T11:58:16.885Z,3.92
2023-09-11T12:03:19.088Z,4.05
2023-09-11T12:08:22.543Z,3.65
2023-09-11T12:13:42.958Z,3.63
2023-09-11T12:18:49.046Z,3.13
2023-09-11T12:23:51.302Z,3.75
2023-09-11T12:28:54.574Z,3.60
2023-09-11T12:33:59.890Z,4.55
2023-09-11T12:39:02.180Z,3.33
2023-09-11T12:44:05.799Z,3.40
2023-09-11T12:49:08.154Z,3.70
2023-09-11T12:54:12.651Z,3.75
2023-09-11T12:59:21.733Z,3.83
2023-09-11T13:04:26.826Z,3.42
2023-09-11T13:09:28.807Z,3.72
2023-09-11T13:14:33.567Z,3.65
2023-09-11T13:19:35.537Z,4.63
2023-09-11T13:24:37.464Z,3.50
2023-09-11T13:29:40.167Z,3.55
2023-09-11T13:34:42.068Z,4.20
2023-09-11T13:39:44.546Z,3.65
2023-09-11T13:44:46.576Z,3.72
2023-09-11T13:49:48.664Z,4.00
2023-09-11T13:54:50.921Z,3.92
2023-09-11T13:59:52.938Z,3.70
2023-09-11T14:04:55.917Z,3.42
2023-09-11T14:09:58.005Z,4.07
2023-09-11T14:15:00.893Z,3.55
2023-09-11T14:20:04.454Z,3.75
2023-09-11T14:25:07.182Z,3.97
2023-09-11T14:30:09.711Z,3.50
2023-09-11T14:35:11.888Z,3.90
2023-09-11T14:40:15.186Z,3.75
2023-09-11T14:45:17.354Z,3.22
2023-09-11T14:50:19.764Z,3.40
2023-09-11T14:55:21.688Z,3.50
2023-09-11T15:00:23.758Z,4.22
2023-09-11T15:05:26.041Z,3.58
2023-09-11T15:10:28.394Z,3.65
2023-09-11T15:15:31.201Z,3.63
2023-09-11T15:20:35.531Z,3.40
2023-09-11T15:25:37.680Z,3.95
2023-09-11T15:36:09.839Z,3.83
2023-09-11T15:41:12.526Z,3.40
2023-09-11T15:46:24.679Z,3.65
2023-09-11T15:51:37.515Z,3.63
2023-09-11T15:56:39.489Z,3.65
2023-09-11T16:01:41.538Z,3.42
2023-09-11T16:06:47.315Z,3.70
2023-09-11T16:11:52.993Z,3.50
2023-09-11T16:16:55.665Z,3.65
2023-09-11T16:21:57.777Z,3.05
2023-09-11T16:27:00.526Z,3.40
2023-09-11T16:32:02.670Z,3.35
2023-09-11T16:37:05.636Z,3.85
2023-09-11T16:42:12.594Z,3.65
2023-09-11T16:47:15.863Z,3.42
2023-09-11T16:52:17.813Z,3.95
2023-09-11T16:57:19.855Z,3.33
2023-09-11T17:02:25.124Z,4.03
2023-09-11T17:07:27.341Z,4.05
2023-09-11T17:12:29.506Z,3.22
2023-09-11T17:17:31.440Z,3.63
2023-09-11T17:22:34.733Z,3.25
2023-09-11T17:27:38.532Z,3.53
2023-09-11T17:32:40.864Z,3.95
2023-09-11T17:37:43.306Z,3.83
2023-09-11T17:42:45.471Z,3.60
2023-09-11T17:47:47.473Z,4.20
2023-09-11T17:52:49.887Z,3.30
2023-09-11T17:57:52.579Z,4.25
2023-09-11T18:02:54.688Z,3.17
2023-09-11T18:07:57.545Z,4.00
2023-09-11T18:13:00.315Z,4.00
2023-09-11T18:18:02.382Z,3.90
2023-09-11T18:23:09.392Z,4.18
2023-09-11T18:28:11.546Z,3.95
2023-09-11T18:33:13.677Z,4.90
2023-09-11T18:38:18.547Z,3.60
2023-09-11T18:43:21.223Z,3.55
2023-09-11T18:48:23.460Z,4.22
2023-09-11T18:53:25.316Z,4.60
2023-09-11T18:58:30.271Z,4.35
2023-09-11T19:03:32.331Z,4.22
2023-09-11T19:08:35.434Z,4.15
2023-09-11T19:13:37.539Z,3.67
2023-09-11T19:18:39.741Z,3.58
2023-09-11T19:23:42.080Z,4.05
2023-09-11T19:28:45.482Z,3.95
2023-09-11T19:33:48.808Z,4.10
2023-09-11T19:38:50.901Z,3.97
2023-09-11T19:43:52.769Z,3.80
2023-09-11T19:48:54.577Z,3.42
2023-09-11T19:53:56.936Z,4.20
2023-09-11T19:59:04.846Z,4.10
2023-09-11T20:04:07.421Z,3.95
2023-09-11T20:09:09.396Z,3.80
2023-09-11T20:14:14.251Z,4.57
2023-09-11T20:19:16.460Z,4.03
2023-09-11T20:24:18.358Z,4.10
2023-09-11T20:29:20.213Z,3.58
2023-09-11T20:34:22.016Z,4.38
2023-09-11T20:39:27.480Z,4.65
2023-09-11T20:44:29.454Z,4.22
2023-09-11T20:49:31.269Z,4.30
2023-09-11T20:54:33.155Z,4.05
2023-09-11T20:59:36.398Z,3.92
2023-09-11T21:04:38.251Z,4.05
2023-09-11T21:09:40.147Z,3.97
2023-09-11T21:14:41.900Z,4.32
2023-09-11T21:19:43.649Z,3.72
2023-09-11T21:24:45.398Z,3.38
2023-09-11T21:29:47.248Z,3.97
2023-09-11T21:34:48.973Z,3.35
2023-09-11T21:39:50.966Z,3.30
2023-09-11T21:44:52.970Z,3.22
2023-09-11T21:49:56.050Z,3.10
2023-09-11T21:55:01.414Z,3.10
2023-09-11T22:00:07.509Z,3.03
2023-09-11T22:05:12.917Z,2.97
2023-09-11T22:10:17.978Z,3.28
2023-09-11T22:15:19.978Z,2.42
2023-09-11T22:20:21.923Z,3.17
2023-09-11T22:25:23.837Z,3.30
2023-09-11T22:30:25.718Z,3.63
2023-09-11T22:35:30.585Z,3.70
2023-09-11T22:40:37.372Z,2.60
2023-09-11T22:45:39.329Z,3.28
2023-09-11T22:50:42.442Z,2.85
2023-09-11T22:55:45.818Z,3.45
2023-09-11T23:00:47.771Z,2.83
2023-09-11T23:05:49.791Z,3.13
2023-09-11T23:10:54.824Z,3.10
2023-09-11T23:16:01.188Z,2.75
2023-09-11T23:21:03.200Z,2.97
2023-09-11T23:26:08.182Z,3.70
2023-09-11T23:31:10.138Z,3.13
2023-09-11T23:36:12.053Z,3.22
2023-09-11T23:41:13.880Z,3.13
2023-09-11T23:46:15.748Z,3.20
2023-09-11T23:51:17.726Z,3.20
2023-09-11T23:56:20.276Z,3.00
